sensor_id;sensor_type;location;lat;lon;timestamp;noise_LAeq;noise_LA_min;noise_LA_max;noise_LA01;noise_LA95
64077;Laerm;51039;49.696;10.808;2023-01-29T00:01:11;38.26;36.55;39.79;;
64077;Laerm;51039;49.696;10.808;2023-01-29T00:03:36;38.25;36.54;39.49;;
64077;Laerm;51039;49.696;10.808;2023-01-29T00:06:06;38.26;36.92;39.65;;
64077;Laerm;51039;49.696;10.808;2023-01-29T00:08:33;38.29;36.34;39.64;;
64077;Laerm;51039;49.696;10.808;2023-01-29T00:11:00;38.32;36.93;39.70;;
64077;Laerm;51039;49.696;10.808;2023-01-29T00:13:26;38.34;37.03;39.64;;
64077;Laerm;51039;49.696;10.808;2023-01-29T00:15:53;38.35;36.97;39.82;;
64077;Laerm;51039;49.696;10.808;2023-01-29T00:18:20;38.35;36.60;39.61;;
64077;Laerm;51039;49.696;10.808;2023-01-29T00:20:45;38.38;36.83;39.81;;
64077;Laerm;51039;49.696;10.808;2023-01-29T00:23:10;38.40;36.99;39.74;;
64077;Laerm;51039;49.696;10.808;2023-01-29T00:25:36;38.40;37.17;39.83;;
64077;Laerm;51039;49.696;10.808;2023-01-29T00:28:01;38.38;37.15;39.73;;
64077;Laerm;51039;49.696;10.808;2023-01-29T00:30:27;38.35;36.99;39.91;;
64077;Laerm;51039;49.696;10.808;2023-01-29T00:32:52;38.39;36.99;39.69;;
64077;Laerm;51039;49.696;10.808;2023-01-29T00:35:18;38.36;36.54;39.61;;
64077;Laerm;51039;49.696;10.808;2023-01-29T00:37:43;38.36;36.84;39.59;;
64077;Laerm;51039;49.696;10.808;2023-01-29T00:40:09;38.37;36.75;39.96;;
64077;Laerm;51039;49.696;10.808;2023-01-29T00:42:34;38.40;37.08;39.69;;
64077;Laerm;51039;49.696;10.808;2023-01-29T00:45:18;38.41;36.95;39.75;;
64077;Laerm;51039;49.696;10.808;2023-01-29T00:47:43;38.41;36.87;39.79;;
64077;Laerm;51039;49.696;10.808;2023-01-29T00:50:10;38.39;37.14;39.77;;
64077;Laerm;51039;49.696;10.808;2023-01-29T00:52:36;38.38;36.76;39.67;;
64077;Laerm;51039;49.696;10.808;2023-01-29T00:55:03;38.38;37.10;39.61;;
64077;Laerm;51039;49.696;10.808;2023-01-29T00:57:30;38.39;36.76;39.98;;
64077;Laerm;51039;49.696;10.808;2023-01-29T00:59:56;38.41;36.97;39.66;;
64077;Laerm;51039;49.696;10.808;2023-01-29T01:02:21;38.41;37.01;39.65;;
64077;Laerm;51039;49.696;10.808;2023-01-29T01:05:06;38.38;37.04;39.85;;
64077;Laerm;51039;49.696;10.808;2023-01-29T01:07:34;38.40;37.04;39.77;;
64077;Laerm;51039;49.696;10.808;2023-01-29T01:09:59;38.41;37.02;39.67;;
64077;Laerm;51039;49.696;10.808;2023-01-29T01:12:43;38.39;36.94;40.00;;
64077;Laerm;51039;49.696;10.808;2023-01-29T01:15:09;38.39;36.95;39.67;;
64077;Laerm;51039;49.696;10.808;2023-01-29T01:17:34;38.39;36.97;39.65;;
64077;Laerm;51039;49.696;10.808;2023-01-29T01:20:00;38.35;37.04;39.63;;
64077;Laerm;51039;49.696;10.808;2023-01-29T01:22:26;38.35;37.03;39.57;;
64077;Laerm;51039;49.696;10.808;2023-01-29T01:24:51;38.37;36.67;39.73;;
64077;Laerm;51039;49.696;10.808;2023-01-29T01:27:17;38.34;36.69;39.77;;
64077;Laerm;51039;49.696;10.808;2023-01-29T01:29:44;38.34;36.62;39.61;;
64077;Laerm;51039;49.696;10.808;2023-01-29T01:32:09;38.33;36.92;39.69;;
64077;Laerm;51039;49.696;10.808;2023-01-29T01:34:35;38.33;37.12;39.71;;
64077;Laerm;51039;49.696;10.808;2023-01-29T01:37:00;38.36;36.90;40.11;;
64077;Laerm;51039;49.696;10.808;2023-01-29T01:39:26;38.35;36.88;40.87;;
64077;Laerm;51039;49.696;10.808;2023-01-29T01:41:52;38.38;36.93;39.67;;
64077;Laerm;51039;49.696;10.808;2023-01-29T01:47:40;38.33;36.69;39.54;;
64077;Laerm;51039;49.696;10.808;2023-01-29T01:50:19;38.38;37.00;39.70;;
64077;Laerm;51039;49.696;10.808;2023-01-29T01:52:50;38.42;36.63;39.74;;
64077;Laerm;51039;49.696;10.808;2023-01-29T01:55:20;38.44;36.76;39.80;;
64077;Laerm;51039;49.696;10.808;2023-01-29T01:57:51;38.45;37.08;40.12;;
64077;Laerm;51039;49.696;10.808;2023-01-29T02:00:20;38.45;37.03;39.74;;
64077;Laerm;51039;49.696;10.808;2023-01-29T02:02:47;38.46;37.02;39.78;;
64077;Laerm;51039;49.696;10.808;2023-01-29T02:05:33;38.51;37.05;40.09;;
64077;Laerm;51039;49.696;10.808;2023-01-29T02:08:24;38.47;37.20;39.82;;
64077;Laerm;51039;49.696;10.808;2023-01-29T02:11:09;38.44;37.09;40.01;;
64077;Laerm;51039;49.696;10.808;2023-01-29T02:13:35;38.44;37.00;39.79;;
64077;Laerm;51039;49.696;10.808;2023-01-29T02:16:00;38.46;37.04;39.71;;
64077;Laerm;51039;49.696;10.808;2023-01-29T02:18:25;38.47;36.94;39.94;;
64077;Laerm;51039;49.696;10.808;2023-01-29T02:29:39;38.53;36.91;39.89;;
64077;Laerm;51039;49.696;10.808;2023-01-29T02:32:12;38.51;36.94;39.72;;
64077;Laerm;51039;49.696;10.808;2023-01-29T02:34:51;38.50;36.89;39.82;;
64077;Laerm;51039;49.696;10.808;2023-01-29T02:38:19;38.50;36.96;39.78;;
64077;Laerm;51039;49.696;10.808;2023-01-29T02:43:49;38.55;37.27;39.83;;
64077;Laerm;51039;49.696;10.808;2023-01-29T02:46:35;38.57;37.08;39.78;;
64077;Laerm;51039;49.696;10.808;2023-01-29T02:49:21;38.56;36.92;39.96;;
64077;Laerm;51039;49.696;10.808;2023-01-29T02:52:08;38.55;36.91;39.80;;
64077;Laerm;51039;49.696;10.808;2023-01-29T02:54:59;38.52;37.07;39.90;;
64077;Laerm;51039;49.696;10.808;2023-01-29T02:57:33;38.50;36.85;39.72;;
64077;Laerm;51039;49.696;10.808;2023-01-29T03:00:11;38.50;36.95;39.77;;
64077;Laerm;51039;49.696;10.808;2023-01-29T03:02:43;38.46;37.06;39.84;;
64077;Laerm;51039;49.696;10.808;2023-01-29T03:05:15;38.46;36.98;39.84;;
64077;Laerm;51039;49.696;10.808;2023-01-29T03:07:49;38.45;37.07;39.75;;
64077;Laerm;51039;49.696;10.808;2023-01-29T03:10:34;38.47;37.15;39.99;;
64077;Laerm;51039;49.696;10.808;2023-01-29T03:13:15;38.46;36.75;39.80;;
64077;Laerm;51039;49.696;10.808;2023-01-29T03:15:45;38.40;36.54;39.74;;
64077;Laerm;51039;49.696;10.808;2023-01-29T03:18:17;38.37;36.87;39.71;;
64077;Laerm;51039;49.696;10.808;2023-01-29T03:20:48;38.35;36.73;39.69;;
64077;Laerm;51039;49.696;10.808;2023-01-29T03:23:35;38.37;36.96;39.86;;
64077;Laerm;51039;49.696;10.808;2023-01-29T03:26:20;38.36;36.70;39.63;;
64077;Laerm;51039;49.696;10.808;2023-01-29T03:29:07;38.34;37.00;39.86;;
64077;Laerm;51039;49.696;10.808;2023-01-29T03:31:54;38.38;36.96;39.68;;
64077;Laerm;51039;49.696;10.808;2023-01-29T03:34:40;38.44;37.15;39.79;;
64077;Laerm;51039;49.696;10.808;2023-01-29T03:37:12;38.48;36.96;39.86;;
64077;Laerm;51039;49.696;10.808;2023-01-29T03:39:40;38.50;36.96;39.87;;
64077;Laerm;51039;49.696;10.808;2023-01-29T03:45:27;38.44;37.03;39.77;;
64077;Laerm;51039;49.696;10.808;2023-01-29T03:48:08;38.43;36.82;39.77;;
64077;Laerm;51039;49.696;10.808;2023-01-29T03:50:55;38.42;36.99;39.82;;
64077;Laerm;51039;49.696;10.808;2023-01-29T03:53:27;38.37;36.73;39.58;;
64077;Laerm;51039;49.696;10.808;2023-01-29T03:55:56;38.38;37.07;39.69;;
64077;Laerm;51039;49.696;10.808;2023-01-29T03:58:42;38.43;36.85;39.76;;
64077;Laerm;51039;49.696;10.808;2023-01-29T04:03:40;38.40;36.80;39.65;;
64077;Laerm;51039;49.696;10.808;2023-01-29T04:08:47;38.37;36.98;39.64;;
64077;Laerm;51039;49.696;10.808;2023-01-29T04:11:17;38.41;36.97;39.68;;
64077;Laerm;51039;49.696;10.808;2023-01-29T04:13:44;38.41;37.12;39.92;;
64077;Laerm;51039;49.696;10.808;2023-01-29T04:16:16;38.38;36.72;39.66;;
64077;Laerm;51039;49.696;10.808;2023-01-29T04:18:47;38.41;36.80;39.65;;
64077;Laerm;51039;49.696;10.808;2023-01-29T04:21:14;38.36;36.64;39.57;;
64077;Laerm;51039;49.696;10.808;2023-01-29T04:23:40;38.34;36.85;39.68;;
64077;Laerm;51039;49.696;10.808;2023-01-29T04:31:39;38.39;36.88;39.56;;
64077;Laerm;51039;49.696;10.808;2023-01-29T04:34:27;38.40;36.88;39.76;;
64077;Laerm;51039;49.696;10.808;2023-01-29T04:39:45;38.43;37.05;40.18;;
64077;Laerm;51039;49.696;10.808;2023-01-29T04:45:26;38.44;36.85;39.84;;
64077;Laerm;51039;49.696;10.808;2023-01-29T04:48:17;38.43;36.92;39.73;;
64077;Laerm;51039;49.696;10.808;2023-01-29T04:56:07;38.38;36.94;39.68;;
64077;Laerm;51039;49.696;10.808;2023-01-29T04:58:46;38.36;36.76;39.80;;
64077;Laerm;51039;49.696;10.808;2023-01-29T05:01:15;38.35;37.11;39.45;;
64077;Laerm;51039;49.696;10.808;2023-01-29T05:03:46;38.42;37.02;39.67;;
64077;Laerm;51039;49.696;10.808;2023-01-29T05:06:15;38.46;36.90;39.71;;
64077;Laerm;51039;49.696;10.808;2023-01-29T05:08:43;38.44;36.77;39.82;;
64077;Laerm;51039;49.696;10.808;2023-01-29T05:11:09;38.44;37.14;39.67;;
64077;Laerm;51039;49.696;10.808;2023-01-29T05:13:37;38.39;36.90;39.75;;
64077;Laerm;51039;49.696;10.808;2023-01-29T05:18:32;38.32;36.83;39.67;;
64077;Laerm;51039;49.696;10.808;2023-01-29T05:21:01;38.38;36.94;39.60;;
64077;Laerm;51039;49.696;10.808;2023-01-29T05:23:28;38.38;37.00;39.99;;
64077;Laerm;51039;49.696;10.808;2023-01-29T05:25:55;38.41;37.07;39.69;;
64077;Laerm;51039;49.696;10.808;2023-01-29T05:28:20;38.39;36.87;39.66;;
64077;Laerm;51039;49.696;10.808;2023-01-29T05:30:48;38.36;36.91;39.65;;
64077;Laerm;51039;49.696;10.808;2023-01-29T05:33:17;38.34;36.89;39.75;;
64077;Laerm;51039;49.696;10.808;2023-01-29T05:35:43;38.33;36.85;39.69;;
64077;Laerm;51039;49.696;10.808;2023-01-29T05:38:09;38.34;36.91;39.69;;
64077;Laerm;51039;49.696;10.808;2023-01-29T05:40:35;38.36;36.89;39.66;;
64077;Laerm;51039;49.696;10.808;2023-01-29T05:43:00;38.35;36.82;39.66;;
64077;Laerm;51039;49.696;10.808;2023-01-29T05:45:26;38.34;36.97;39.68;;
64077;Laerm;51039;49.696;10.808;2023-01-29T05:47:55;38.35;36.86;39.65;;
64077;Laerm;51039;49.696;10.808;2023-01-29T05:50:22;38.35;36.84;39.62;;
64077;Laerm;51039;49.696;10.808;2023-01-29T05:52:47;38.37;36.98;39.77;;
64077;Laerm;51039;49.696;10.808;2023-01-29T05:55:12;38.39;37.02;39.68;;
64077;Laerm;51039;49.696;10.808;2023-01-29T05:57:39;38.38;37.05;39.76;;
64077;Laerm;51039;49.696;10.808;2023-01-29T06:00:05;38.37;37.14;39.64;;
64077;Laerm;51039;49.696;10.808;2023-01-29T06:02:31;38.40;36.95;39.92;;
64077;Laerm;51039;49.696;10.808;2023-01-29T06:04:56;38.45;36.83;39.80;;
64077;Laerm;51039;49.696;10.808;2023-01-29T06:07:21;38.46;37.16;39.97;;
64077;Laerm;51039;49.696;10.808;2023-01-29T06:09:47;38.51;37.01;39.94;;
64077;Laerm;51039;49.696;10.808;2023-01-29T06:12:12;38.47;36.99;39.86;;
64077;Laerm;51039;49.696;10.808;2023-01-29T06:14:37;38.46;36.93;39.83;;
64077;Laerm;51039;49.696;10.808;2023-01-29T06:17:02;38.47;37.01;39.85;;
64077;Laerm;51039;49.696;10.808;2023-01-29T06:19:29;38.48;37.05;39.83;;
64077;Laerm;51039;49.696;10.808;2023-01-29T06:21:54;38.47;37.17;39.90;;
64077;Laerm;51039;49.696;10.808;2023-01-29T06:24:19;38.47;36.97;39.72;;
64077;Laerm;51039;49.696;10.808;2023-01-29T06:26:44;38.47;36.99;39.71;;
64077;Laerm;51039;49.696;10.808;2023-01-29T06:29:10;38.42;36.79;39.66;;
64077;Laerm;51039;49.696;10.808;2023-01-29T06:31:35;38.41;36.99;39.76;;
64077;Laerm;51039;49.696;10.808;2023-01-29T06:34:00;38.40;36.97;39.63;;
64077;Laerm;51039;49.696;10.808;2023-01-29T06:36:26;38.41;37.10;39.68;;
64077;Laerm;51039;49.696;10.808;2023-01-29T06:38:51;38.39;37.13;39.91;;
64077;Laerm;51039;49.696;10.808;2023-01-29T06:41:18;38.35;36.85;39.68;;
64077;Laerm;51039;49.696;10.808;2023-01-29T06:43:45;38.37;36.83;39.74;;
64077;Laerm;51039;49.696;10.808;2023-01-29T06:46:10;38.39;37.05;40.01;;
64077;Laerm;51039;49.696;10.808;2023-01-29T06:48:36;38.39;36.94;39.54;;
64077;Laerm;51039;49.696;10.808;2023-01-29T06:51:02;38.38;36.98;39.85;;
64077;Laerm;51039;49.696;10.808;2023-01-29T06:53:28;38.39;37.02;39.81;;
64077;Laerm;51039;49.696;10.808;2023-01-29T06:55:53;38.41;37.04;39.96;;
64077;Laerm;51039;49.696;10.808;2023-01-29T06:58:19;38.42;37.09;39.78;;
64077;Laerm;51039;49.696;10.808;2023-01-29T07:00:44;38.42;36.71;40.01;;
64077;Laerm;51039;49.696;10.808;2023-01-29T07:03:10;38.37;36.90;39.64;;
64077;Laerm;51039;49.696;10.808;2023-01-29T07:05:36;38.34;36.85;39.68;;
64077;Laerm;51039;49.696;10.808;2023-01-29T07:08:01;38.36;36.84;39.76;;
64077;Laerm;51039;49.696;10.808;2023-01-29T07:10:27;38.39;37.05;39.66;;
64077;Laerm;51039;49.696;10.808;2023-01-29T07:12:52;38.39;37.04;39.73;;
64077;Laerm;51039;49.696;10.808;2023-01-29T07:15:17;38.39;36.89;39.58;;
64077;Laerm;51039;49.696;10.808;2023-01-29T07:17:54;38.39;36.94;39.65;;
64077;Laerm;51039;49.696;10.808;2023-01-29T07:20:19;38.39;36.95;39.75;;
64077;Laerm;51039;49.696;10.808;2023-01-29T07:22:45;38.39;37.00;39.59;;
64077;Laerm;51039;49.696;10.808;2023-01-29T07:25:10;38.38;36.99;39.75;;
64077;Laerm;51039;49.696;10.808;2023-01-29T07:27:35;38.41;36.81;39.70;;
64077;Laerm;51039;49.696;10.808;2023-01-29T07:30:01;38.40;36.94;39.58;;
64077;Laerm;51039;49.696;10.808;2023-01-29T07:32:27;38.38;36.85;39.73;;
64077;Laerm;51039;49.696;10.808;2023-01-29T07:34:53;38.37;36.90;39.79;;
64077;Laerm;51039;49.696;10.808;2023-01-29T07:37:18;38.40;36.96;40.28;;
64077;Laerm;51039;49.696;10.808;2023-01-29T07:39:43;38.42;36.89;39.99;;
64077;Laerm;51039;49.696;10.808;2023-01-29T07:42:10;38.42;36.97;39.70;;
64077;Laerm;51039;49.696;10.808;2023-01-29T07:44:35;38.40;37.00;39.77;;
64077;Laerm;51039;49.696;10.808;2023-01-29T07:47:01;38.40;36.82;39.72;;
64077;Laerm;51039;49.696;10.808;2023-01-29T07:49:26;38.38;36.96;39.64;;
64077;Laerm;51039;49.696;10.808;2023-01-29T07:51:51;38.34;36.86;39.82;;
64077;Laerm;51039;49.696;10.808;2023-01-29T07:54:16;38.36;36.69;39.63;;
64077;Laerm;51039;49.696;10.808;2023-01-29T07:56:42;38.38;37.06;39.67;;
64077;Laerm;51039;49.696;10.808;2023-01-29T07:59:07;38.39;36.85;39.67;;
64077;Laerm;51039;49.696;10.808;2023-01-29T08:01:32;38.40;37.04;39.71;;
64077;Laerm;51039;49.696;10.808;2023-01-29T08:03:58;38.37;36.71;39.61;;
64077;Laerm;51039;49.696;10.808;2023-01-29T08:06:23;38.35;36.77;39.83;;
64077;Laerm;51039;49.696;10.808;2023-01-29T08:08:48;38.33;36.87;39.50;;
64077;Laerm;51039;49.696;10.808;2023-01-29T08:11:14;38.30;36.91;39.67;;
64077;Laerm;51039;49.696;10.808;2023-01-29T08:13:39;38.29;37.03;39.59;;
64077;Laerm;51039;49.696;10.808;2023-01-29T08:16:05;38.30;36.77;39.48;;
64077;Laerm;51039;49.696;10.808;2023-01-29T08:18:30;38.30;36.74;39.91;;
64077;Laerm;51039;49.696;10.808;2023-01-29T08:20:59;38.30;36.67;39.71;;
64077;Laerm;51039;49.696;10.808;2023-01-29T08:23:25;38.27;36.85;39.69;;
64077;Laerm;51039;49.696;10.808;2023-01-29T08:25:51;38.20;36.71;39.51;;
64077;Laerm;51039;49.696;10.808;2023-01-29T08:28:16;38.15;36.76;39.61;;
64077;Laerm;51039;49.696;10.808;2023-01-29T08:30:41;38.07;36.68;39.40;;
64077;Laerm;51039;49.696;10.808;2023-01-29T08:33:08;38.05;36.56;39.37;;
64077;Laerm;51039;49.696;10.808;2023-01-29T08:35:33;37.98;36.46;39.35;;
64077;Laerm;51039;49.696;10.808;2023-01-29T08:38:00;37.89;36.58;39.17;;
64077;Laerm;51039;49.696;10.808;2023-01-29T08:40:28;37.81;36.13;39.32;;
64077;Laerm;51039;49.696;10.808;2023-01-29T08:43:06;37.74;36.37;39.08;;
64077;Laerm;51039;49.696;10.808;2023-01-29T08:45:33;37.64;36.28;38.94;;
64077;Laerm;51039;49.696;10.808;2023-01-29T08:47:59;37.61;36.15;38.83;;
64077;Laerm;51039;49.696;10.808;2023-01-29T08:50:24;37.57;36.15;38.85;;
64077;Laerm;51039;49.696;10.808;2023-01-29T08:52:50;37.57;36.20;38.93;;
64077;Laerm;51039;49.696;10.808;2023-01-29T08:55:15;37.54;36.23;38.83;;
64077;Laerm;51039;49.696;10.808;2023-01-29T08:57:40;37.57;36.00;38.84;;
64077;Laerm;51039;49.696;10.808;2023-01-29T09:00:07;37.55;35.90;39.01;;
64077;Laerm;51039;49.696;10.808;2023-01-29T09:02:33;37.54;36.11;38.90;;
64077;Laerm;51039;49.696;10.808;2023-01-29T09:04:58;37.51;35.88;39.08;;
64077;Laerm;51039;49.696;10.808;2023-01-29T09:07:24;37.49;35.86;38.72;;
64077;Laerm;51039;49.696;10.808;2023-01-29T09:09:49;37.49;36.08;38.81;;
64077;Laerm;51039;49.696;10.808;2023-01-29T09:12:14;37.47;36.14;38.83;;
64077;Laerm;51039;49.696;10.808;2023-01-29T09:14:39;37.49;35.64;38.86;;
64077;Laerm;51039;49.696;10.808;2023-01-29T09:17:05;37.49;36.11;38.93;;
64077;Laerm;51039;49.696;10.808;2023-01-29T09:19:30;37.49;36.15;38.89;;
64077;Laerm;51039;49.696;10.808;2023-01-29T09:21:55;37.67;36.22;38.98;;
64077;Laerm;51039;49.696;10.808;2023-01-29T09:24:21;37.59;35.96;39.00;;
64077;Laerm;51039;49.696;10.808;2023-01-29T09:26:46;37.50;35.79;38.80;;
64077;Laerm;51039;49.696;10.808;2023-01-29T09:29:11;37.48;36.19;38.77;;
64077;Laerm;51039;49.696;10.808;2023-01-29T09:31:37;37.47;35.94;38.69;;
64077;Laerm;51039;49.696;10.808;2023-01-29T09:34:02;37.41;36.05;38.59;;
64077;Laerm;51039;49.696;10.808;2023-01-29T09:36:28;37.35;35.84;38.68;;
64077;Laerm;51039;49.696;10.808;2023-01-29T09:38:53;37.27;35.87;38.54;;
64077;Laerm;51039;49.696;10.808;2023-01-29T09:43:59;37.10;35.83;38.26;;
64077;Laerm;51039;49.696;10.808;2023-01-29T09:46:34;37.04;35.46;38.28;;
64077;Laerm;51039;49.696;10.808;2023-01-29T09:51:43;37.03;35.72;38.46;;
64077;Laerm;51039;49.696;10.808;2023-01-29T09:54:30;37.06;35.75;38.38;;
64077;Laerm;51039;49.696;10.808;2023-01-29T09:56:57;37.10;35.67;38.60;;
64077;Laerm;51039;49.696;10.808;2023-01-29T09:59:26;37.07;35.50;38.64;;
64077;Laerm;51039;49.696;10.808;2023-01-29T10:02:09;36.90;35.41;38.41;;
64077;Laerm;51039;49.696;10.808;2023-01-29T10:13:06;36.50;35.12;37.90;;
64077;Laerm;51039;49.696;10.808;2023-01-29T10:23:46;36.40;35.00;37.71;;
64077;Laerm;51039;49.696;10.808;2023-01-29T10:26:12;36.40;34.93;37.82;;
64077;Laerm;51039;49.696;10.808;2023-01-29T10:28:47;36.45;35.02;37.74;;
64077;Laerm;51039;49.696;10.808;2023-01-29T10:31:19;36.49;34.84;37.78;;
64077;Laerm;51039;49.696;10.808;2023-01-29T10:34:13;36.50;34.96;37.78;;
64077;Laerm;51039;49.696;10.808;2023-01-29T10:36:43;36.50;35.01;37.80;;
64077;Laerm;51039;49.696;10.808;2023-01-29T10:39:22;36.49;35.07;37.97;;
64077;Laerm;51039;49.696;10.808;2023-01-29T10:42:17;36.54;35.11;37.87;;
64077;Laerm;51039;49.696;10.808;2023-01-29T10:45:35;36.53;34.95;37.78;;
64077;Laerm;51039;49.696;10.808;2023-01-29T10:51:02;36.55;35.09;37.98;;
64077;Laerm;51039;49.696;10.808;2023-01-29T11:01:15;36.57;35.17;37.96;;
64077;Laerm;51039;49.696;10.808;2023-01-29T11:03:40;36.60;35.09;38.09;;
64077;Laerm;51039;49.696;10.808;2023-01-29T11:06:17;36.61;35.17;37.93;;
64077;Laerm;51039;49.696;10.808;2023-01-29T11:11:18;36.57;35.10;38.00;;
64077;Laerm;51039;49.696;10.808;2023-01-29T11:13:53;36.58;35.19;38.09;;
64077;Laerm;51039;49.696;10.808;2023-01-29T11:16:19;36.60;35.18;37.95;;
64077;Laerm;51039;49.696;10.808;2023-01-29T11:18:49;36.58;35.09;37.82;;
64077;Laerm;51039;49.696;10.808;2023-01-29T11:21:14;36.57;35.18;37.96;;
64077;Laerm;51039;49.696;10.808;2023-01-29T11:23:40;36.57;35.07;38.07;;
64077;Laerm;51039;49.696;10.808;2023-01-29T11:26:06;36.57;35.30;37.80;;
64077;Laerm;51039;49.696;10.808;2023-01-29T11:28:40;36.55;35.07;37.86;;
64077;Laerm;51039;49.696;10.808;2023-01-29T11:31:23;36.53;35.32;38.10;;
64077;Laerm;51039;49.696;10.808;2023-01-29T11:33:52;36.52;34.82;37.69;;
64077;Laerm;51039;49.696;10.808;2023-01-29T11:36:34;36.51;35.11;37.87;;
64077;Laerm;51039;49.696;10.808;2023-01-29T11:41:46;36.44;34.98;37.75;;
64077;Laerm;51039;49.696;10.808;2023-01-29T11:46:55;36.41;34.86;37.84;;
64077;Laerm;51039;49.696;10.808;2023-01-29T11:49:29;36.40;35.16;37.96;;
64077;Laerm;51039;49.696;10.808;2023-01-29T11:51:56;36.40;35.05;37.82;;
64077;Laerm;51039;49.696;10.808;2023-01-29T11:54:27;36.40;35.04;37.77;;
64077;Laerm;51039;49.696;10.808;2023-01-29T11:56:54;36.39;34.97;37.80;;
64077;Laerm;51039;49.696;10.808;2023-01-29T12:01:52;36.41;35.11;37.80;;
64077;Laerm;51039;49.696;10.808;2023-01-29T12:04:22;36.49;34.85;37.97;;
64077;Laerm;51039;49.696;10.808;2023-01-29T12:06:49;36.49;34.92;37.90;;
64077;Laerm;51039;49.696;10.808;2023-01-29T12:09:22;36.51;35.28;37.82;;
64077;Laerm;51039;49.696;10.808;2023-01-29T12:11:48;36.53;34.86;37.79;;
64077;Laerm;51039;49.696;10.808;2023-01-29T12:14:27;36.56;34.88;38.01;;
64077;Laerm;51039;49.696;10.808;2023-01-29T12:17:01;36.52;35.21;37.85;;
64077;Laerm;51039;49.696;10.808;2023-01-29T12:22:05;36.52;35.01;37.79;;
64077;Laerm;51039;49.696;10.808;2023-01-29T12:24:41;36.50;35.21;37.97;;
64077;Laerm;51039;49.696;10.808;2023-01-29T12:27:14;36.39;34.89;37.69;;
64077;Laerm;51039;49.696;10.808;2023-01-29T12:33:00;36.45;35.03;37.86;;
64077;Laerm;51039;49.696;10.808;2023-01-29T12:35:32;36.51;34.88;38.13;;
64077;Laerm;51039;49.696;10.808;2023-01-29T12:40:54;36.49;34.81;37.82;;
64077;Laerm;51039;49.696;10.808;2023-01-29T12:43:30;36.48;34.83;37.69;;
64077;Laerm;51039;49.696;10.808;2023-01-29T12:45:59;36.48;34.95;37.87;;
64077;Laerm;51039;49.696;10.808;2023-01-29T12:48:33;36.46;34.93;37.84;;
64077;Laerm;51039;49.696;10.808;2023-01-29T12:51:15;36.48;34.97;37.87;;
64077;Laerm;51039;49.696;10.808;2023-01-29T12:53:49;36.51;34.94;37.92;;
64077;Laerm;51039;49.696;10.808;2023-01-29T12:58:50;36.52;35.10;37.93;;
64077;Laerm;51039;49.696;10.808;2023-01-29T13:02:03;36.53;35.01;38.02;;
64077;Laerm;51039;49.696;10.808;2023-01-29T13:07:30;36.54;35.08;37.95;;
64077;Laerm;51039;49.696;10.808;2023-01-29T13:10:04;36.57;35.18;37.88;;
64077;Laerm;51039;49.696;10.808;2023-01-29T13:12:33;36.61;34.89;38.00;;
64077;Laerm;51039;49.696;10.808;2023-01-29T13:15:16;36.65;35.29;37.88;;
64077;Laerm;51039;49.696;10.808;2023-01-29T13:17:51;36.62;35.04;37.86;;
64077;Laerm;51039;49.696;10.808;2023-01-29T13:20:44;36.65;35.18;37.86;;
64077;Laerm;51039;49.696;10.808;2023-01-29T13:23:21;36.67;35.19;38.00;;
64077;Laerm;51039;49.696;10.808;2023-01-29T13:25:51;36.69;35.43;37.95;;
64077;Laerm;51039;49.696;10.808;2023-01-29T13:28:18;36.71;35.27;38.08;;
64077;Laerm;51039;49.696;10.808;2023-01-29T13:30:45;36.75;35.28;38.54;;
64077;Laerm;51039;49.696;10.808;2023-01-29T13:33:28;36.78;34.80;38.10;;
64077;Laerm;51039;49.696;10.808;2023-01-29T13:35:57;36.84;35.55;38.08;;
64077;Laerm;51039;49.696;10.808;2023-01-29T13:38:27;36.85;35.50;38.18;;
64077;Laerm;51039;49.696;10.808;2023-01-29T13:40:57;36.88;35.49;38.21;;
64077;Laerm;51039;49.696;10.808;2023-01-29T13:43:25;36.90;35.33;38.30;;
64077;Laerm;51039;49.696;10.808;2023-01-29T13:45:53;36.91;35.32;38.09;;
64077;Laerm;51039;49.696;10.808;2023-01-29T13:48:29;36.92;35.64;38.23;;
64077;Laerm;51039;49.696;10.808;2023-01-29T13:51:02;36.95;35.51;38.35;;
64077;Laerm;51039;49.696;10.808;2023-01-29T13:53:40;37.00;35.49;38.30;;
64077;Laerm;51039;49.696;10.808;2023-01-29T13:58:54;36.96;35.46;38.24;;
64077;Laerm;51039;49.696;10.808;2023-01-29T14:06:52;37.03;35.81;38.27;;
64077;Laerm;51039;49.696;10.808;2023-01-29T14:12:03;37.11;35.82;38.67;;
64077;Laerm;51039;49.696;10.808;2023-01-29T14:17:16;37.12;35.71;38.29;;
64077;Laerm;51039;49.696;10.808;2023-01-29T14:19:50;37.12;35.53;38.55;;
64077;Laerm;51039;49.696;10.808;2023-01-29T14:22:24;37.17;35.58;38.60;;
64077;Laerm;51039;49.696;10.808;2023-01-29T14:24:58;37.34;35.73;38.90;;
64077;Laerm;51039;49.696;10.808;2023-01-29T14:27:24;37.28;35.94;38.65;;
64077;Laerm;51039;49.696;10.808;2023-01-29T14:29:50;37.25;35.79;38.82;;
64077;Laerm;51039;49.696;10.808;2023-01-29T14:32:22;37.20;35.83;38.58;;
64077;Laerm;51039;49.696;10.808;2023-01-29T14:34:54;37.19;35.56;38.43;;
64077;Laerm;51039;49.696;10.808;2023-01-29T14:37:32;37.21;35.87;38.39;;
64077;Laerm;51039;49.696;10.808;2023-01-29T14:43:00;37.29;35.59;38.77;;
64077;Laerm;51039;49.696;10.808;2023-01-29T14:45:30;37.30;35.73;38.80;;
64077;Laerm;51039;49.696;10.808;2023-01-29T14:53:15;37.38;35.76;38.55;;
64077;Laerm;51039;49.696;10.808;2023-01-29T14:55:52;37.43;36.03;38.76;;
64077;Laerm;51039;49.696;10.808;2023-01-29T14:58:24;37.45;35.93;38.70;;
64077;Laerm;51039;49.696;10.808;2023-01-29T15:00:54;37.48;35.78;38.99;;
64077;Laerm;51039;49.696;10.808;2023-01-29T15:03:42;37.53;36.08;38.87;;
64077;Laerm;51039;49.696;10.808;2023-01-29T15:06:27;37.55;36.23;38.80;;
64077;Laerm;51039;49.696;10.808;2023-01-29T15:09:03;37.59;36.00;38.95;;
64077;Laerm;51039;49.696;10.808;2023-01-29T15:12:01;37.65;36.06;39.05;;
64077;Laerm;51039;49.696;10.808;2023-01-29T15:14:31;37.69;36.12;39.11;;
64077;Laerm;51039;49.696;10.808;2023-01-29T15:17:27;37.73;36.29;39.23;;
64077;Laerm;51039;49.696;10.808;2023-01-29T15:19:54;37.74;36.38;39.03;;
64077;Laerm;51039;49.696;10.808;2023-01-29T15:22:22;37.75;36.34;39.00;;
64077;Laerm;51039;49.696;10.808;2023-01-29T15:25:05;37.83;36.42;39.20;;
64077;Laerm;51039;49.696;10.808;2023-01-29T15:27:32;37.86;36.33;39.21;;
64077;Laerm;51039;49.696;10.808;2023-01-29T15:30:00;37.91;36.03;39.24;;
64077;Laerm;51039;49.696;10.808;2023-01-29T15:32:31;37.94;36.11;39.15;;
64077;Laerm;51039;49.696;10.808;2023-01-29T15:34:58;38.01;36.51;39.47;;
64077;Laerm;51039;49.696;10.808;2023-01-29T15:37:32;38.09;36.75;39.30;;
64077;Laerm;51039;49.696;10.808;2023-01-29T15:39:59;38.17;36.43;39.50;;
64077;Laerm;51039;49.696;10.808;2023-01-29T15:42:27;38.25;36.85;39.54;;
64077;Laerm;51039;49.696;10.808;2023-01-29T15:44:53;38.30;36.92;39.64;;
64077;Laerm;51039;49.696;10.808;2023-01-29T15:47:21;38.35;36.94;39.63;;
64077;Laerm;51039;49.696;10.808;2023-01-29T15:49:49;38.44;36.73;39.85;;
64077;Laerm;51039;49.696;10.808;2023-01-29T15:52:18;38.50;37.05;39.69;;